Time;durP1;ratioP1;P1;durP2;ratioP2;P2;SDS_P1;SDS_P2;PMS_P1;PMS_P2;Temp;Humidity;BMP_temperature;BMP_pressure;BME280_temperature;BME280_humidity;BME280_pressure;Samples;Min_cycle;Max_cycle;Signal;HPM_P1;HPM_P2
2021/05/29 00:02:13;;;;;;;9.97;8.30;;;;;;;14.04;64.60;101178.78;5079736;28;20551;-72
2021/05/29 00:04:39;;;;;;;9.43;8.17;;;;;;;14.09;64.38;101164.91;5081449;28;20452;-72
2021/05/29 00:07:06;;;;;;;9.57;8.67;;;;;;;14.12;64.58;101175.41;5080619;28;20483;-72
2021/05/29 00:09:32;;;;;;;11.00;9.80;;;;;;;13.83;65.44;101164.63;5080273;28;20436;-71
2021/05/29 00:11:59;;;;;;;10.97;8.87;;;;;;;14.02;64.90;101169.16;5080084;28;20509;-72
2021/05/29 00:14:25;;;;;;;10.57;9.57;;;;;;;14.00;64.72;101158.53;5080879;28;20452;-72
2021/05/29 00:16:52;;;;;;;12.13;10.27;;;;;;;13.77;65.44;101162.50;5079965;28;20484;-72
2021/05/29 00:19:18;;;;;;;11.23;8.63;;;;;;;13.83;64.95;101165.44;5080922;28;20444;-73
2021/05/29 00:21:44;;;;;;;9.23;8.30;;;;;;;13.83;64.70;101168.13;5079950;28;20510;-72
2021/05/29 00:24:11;;;;;;;9.63;8.67;;;;;;;13.87;64.43;101164.19;5080468;28;20492;-72
2021/05/29 00:26:37;;;;;;;9.50;8.47;;;;;;;13.90;64.73;101166.59;5080430;28;20511;-72
2021/05/29 00:29:03;;;;;;;9.77;8.63;;;;;;;13.93;65.10;101163.63;5080809;28;20452;-72
2021/05/29 00:31:29;;;;;;;14.97;12.53;;;;;;;13.71;65.92;101161.19;5080621;28;20468;-72
2021/05/29 00:33:57;;;;;;;18.30;12.07;;;;;;;13.83;65.88;101156.53;5080171;28;20479;-72
2021/05/29 00:36:23;;;;;;;17.60;14.30;;;;;;;13.62;67.19;101164.72;5080459;28;20519;-72
2021/05/29 00:38:49;;;;;;;16.90;13.33;;;;;;;13.60;67.28;101164.00;5079851;28;20432;-72
2021/05/29 00:41:15;;;;;;;20.40;16.07;;;;;;;13.94;66.17;101164.50;5080517;28;20494;-72
2021/05/29 00:43:42;;;;;;;19.70;14.60;;;;;;;14.06;66.03;101165.19;5080341;28;20483;-72
2021/05/29 00:46:09;;;;;;;19.43;13.87;;;;;;;14.34;65.30;101171.56;5080615;28;20467;-73
2021/05/29 00:48:35;;;;;;;16.57;14.50;;;;;;;14.45;64.33;101171.41;5081762;28;20424;-72
2021/05/29 00:51:03;;;;;;;17.27;14.00;;;;;;;14.59;64.01;101178.22;5081136;28;20584;-72
2021/05/29 00:53:30;;;;;;;19.63;13.80;;;;;;;14.67;63.92;101182.91;5081130;28;20447;-72
2021/05/29 00:55:57;;;;;;;17.13;13.60;;;;;;;14.81;63.63;101178.91;5079871;28;20500;-72
2021/05/29 00:58:25;;;;;;;20.50;14.03;;;;;;;14.61;64.00;101178.09;5080813;28;20478;-72
2021/05/29 01:00:51;;;;;;;16.47;14.73;;;;;;;14.52;64.32;101185.16;5080024;28;20509;-72
2021/05/29 01:03:17;;;;;;;16.20;13.53;;;;;;;14.61;63.73;101176.22;5080951;28;20471;-72
2021/05/29 01:05:44;;;;;;;18.63;14.20;;;;;;;14.65;63.82;101182.19;5079933;28;20468;-72
2021/05/29 01:08:12;;;;;;;20.37;13.47;;;;;;;14.76;63.11;101187.41;5079905;28;20448;-71
2021/05/29 01:10:38;;;;;;;16.13;14.40;;;;;;;14.61;63.67;101187.00;5080282;28;20486;-71
2021/05/29 01:13:10;;;;;;;21.90;15.03;;;;;;;14.42;63.13;101187.00;5080709;28;20513;-72
2021/05/29 01:15:39;;;;;;;21.10;14.63;;;;;;;14.45;63.46;101184.03;5079565;28;20487;-72
2021/05/29 01:18:05;;;;;;;18.77;14.33;;;;;;;14.46;63.21;101186.56;5080854;28;20542;-72
2021/05/29 01:20:32;;;;;;;22.70;15.03;;;;;;;14.36;63.88;101176.81;5080092;28;20964;-72
2021/05/29 01:22:59;;;;;;;20.63;14.50;;;;;;;14.02;64.54;101174.53;5084526;28;20516;-73
2021/05/29 01:25:29;;;;;;;19.53;15.43;;;;;;;13.99;63.98;101180.19;5083009;28;20928;-72
2021/05/29 01:27:59;;;;;;;17.57;14.10;;;;;;;14.08;63.74;101174.81;5083747;28;20538;-72
2021/05/29 01:30:26;;;;;;;25.60;16.47;;;;;;;14.12;63.47;101184.31;5083656;28;20466;-72
2021/05/29 01:32:53;;;;;;;18.87;14.83;;;;;;;14.03;63.78;101178.94;5083712;28;20443;-72
2021/05/29 01:35:19;;;;;;;20.77;16.27;;;;;;;14.08;63.89;101179.38;5083181;28;20940;-72
2021/05/29 01:37:46;;;;;;;19.40;15.17;;;;;;;14.05;63.87;101185.84;5083828;28;20432;-72
2021/05/29 01:40:13;;;;;;;23.20;15.87;;;;;;;14.10;63.66;101186.28;5082219;28;20472;-71
2021/05/29 01:42:39;;;;;;;21.07;16.30;;;;;;;14.24;63.15;101179.63;5082952;28;20498;-72
2021/05/29 01:45:08;;;;;;;22.20;14.90;;;;;;;14.18;63.52;101184.72;5082989;28;20452;-72
2021/05/29 01:47:35;;;;;;;19.67;15.50;;;;;;;14.15;63.71;101179.63;5083157;28;20490;-72
2021/05/29 01:50:04;;;;;;;21.97;16.17;;;;;;;14.07;63.90;101189.25;5083992;28;20944;-72
2021/05/29 01:52:51;;;;;;;21.93;15.60;;;;;;;14.03;64.20;101189.69;5083026;28;20537;-72
2021/05/29 01:55:20;;;;;;;27.50;15.73;;;;;;;13.91;64.67;101189.81;5082621;28;20459;-72
2021/05/29 01:57:47;;;;;;;28.13;16.80;;;;;;;14.00;64.47;101188.13;5083498;28;20475;-72
2021/05/29 02:00:15;;;;;;;25.13;15.47;;;;;;;14.20;63.75;101189.00;5082647;28;20471;-72
2021/05/29 02:02:41;;;;;;;24.20;16.90;;;;;;;14.24;63.32;101194.94;5083091;28;20496;-71
2021/05/29 02:05:13;;;;;;;21.07;16.10;;;;;;;14.35;63.01;101191.25;5082775;28;20973;-72
2021/05/29 02:07:40;;;;;;;24.83;15.80;;;;;;;14.36;63.17;101185.72;5082893;28;20482;-72
2021/05/29 02:10:07;;;;;;;25.33;16.40;;;;;;;14.34;63.21;101187.72;5082938;28;20456;-72
2021/05/29 02:12:42;;;;;;;28.77;16.97;;;;;;;14.07;64.11;101191.09;5083237;28;20926;-72
2021/05/29 02:15:12;;;;;;;20.67;15.90;;;;;;;13.74;64.78;101185.94;5081943;28;20455;-72
2021/05/29 02:17:39;;;;;;;23.40;15.97;;;;;;;13.84;64.72;101185.97;5082702;28;20471;-72
2021/05/29 02:20:06;;;;;;;25.90;17.13;;;;;;;13.87;64.77;101185.72;5082196;28;20475;-72
2021/05/29 02:22:33;;;;;;;23.63;16.17;;;;;;;13.88;64.66;101187.38;5083017;28;20519;-72
2021/05/29 02:24:59;;;;;;;26.13;17.30;;;;;;;13.91;65.04;101179.06;5082565;28;20448;-72
2021/05/29 02:27:26;;;;;;;27.30;16.03;;;;;;;14.20;64.41;101188.13;5082369;28;20475;-72
2021/05/29 02:29:53;;;;;;;32.43;17.37;;;;;;;14.23;63.86;101187.84;5082470;28;20563;-72
2021/05/29 02:32:19;;;;;;;27.07;17.73;;;;;;;14.18;64.11;101188.25;5081248;28;20503;-71
2021/05/29 02:34:45;;;;;;;29.33;18.63;;;;;;;14.18;64.32;101184.72;5082691;28;20456;-72
2021/05/29 02:37:11;;;;;;;25.83;18.00;;;;;;;14.33;63.70;101188.69;5082014;28;20476;-72
2021/05/29 02:39:37;;;;;;;27.83;17.50;;;;;;;14.27;63.65;101179.38;5082406;28;20471;-72
2021/05/29 02:42:04;;;;;;;25.10;17.63;;;;;;;14.29;63.42;101176.53;5081811;28;20582;-73
2021/05/29 02:44:31;;;;;;;26.30;18.70;;;;;;;14.35;63.10;101189.41;5062503;28;20500;-72
2021/05/29 02:46:58;;;;;;;22.50;15.83;;;;;;;14.32;62.87;101182.47;5075498;28;20543;-72
2021/05/29 02:49:24;;;;;;;28.33;15.23;;;;;;;14.31;63.03;101180.75;5082741;28;20566;-72
2021/05/29 02:51:50;;;;;;;22.47;15.97;;;;;;;14.26;62.94;101185.72;5081702;28;20490;-72
2021/05/29 02:54:16;;;;;;;21.87;15.87;;;;;;;14.17;62.90;101177.66;5081919;28;20480;-72
2021/05/29 02:56:44;;;;;;;19.10;14.77;;;;;;;14.12;63.05;101180.78;5081168;28;20480;-72
2021/05/29 02:59:10;;;;;;;22.73;15.00;;;;;;;14.24;63.27;101176.94;5068594;28;20506;-72
2021/05/29 03:01:36;;;;;;;19.80;13.40;;;;;;;14.35;62.49;101177.81;5081089;28;20538;-72
2021/05/29 03:04:04;;;;;;;22.50;14.40;;;;;;;14.31;62.48;101172.69;5081975;28;20784;-72
2021/05/29 03:06:30;;;;;;;20.80;14.23;;;;;;;14.36;62.37;101171.44;5081794;28;20491;-72
2021/05/29 03:08:57;;;;;;;18.40;14.50;;;;;;;14.44;62.52;101168.88;5082125;28;20515;-71
2021/05/29 03:11:24;;;;;;;19.07;15.00;;;;;;;14.40;62.00;101167.47;5081285;28;20471;-72
2021/05/29 03:13:50;;;;;;;19.90;15.03;;;;;;;14.46;62.04;101169.56;5081217;28;20471;-72
2021/05/29 03:16:16;;;;;;;16.40;13.00;;;;;;;14.42;62.13;101171.69;5080949;28;20491;-72
2021/05/29 03:18:42;;;;;;;23.50;17.47;;;;;;;14.34;62.22;101179.66;5082321;28;20447;-72
2021/05/29 03:21:09;;;;;;;24.17;15.10;;;;;;;14.29;62.77;101181.91;5082092;28;20483;-72
2021/05/29 03:23:35;;;;;;;24.77;15.43;;;;;;;14.45;62.52;101187.56;5080948;28;20482;-71
2021/05/29 03:26:02;;;;;;;30.90;17.00;;;;;;;14.48;62.31;101181.06;5080750;28;20479;-72
2021/05/29 03:28:28;;;;;;;22.20;16.63;;;;;;;14.53;62.04;101188.69;5082238;28;20464;-71
2021/05/29 03:30:54;;;;;;;22.07;15.30;;;;;;;14.55;61.96;101197.44;5080971;28;20578;-72
2021/05/29 03:33:20;;;;;;;25.30;16.60;;;;;;;14.35;62.45;101194.78;5081522;28;20476;-72
2021/05/29 03:35:46;;;;;;;29.10;18.07;;;;;;;14.58;62.06;101205.25;5080363;28;20965;-72
2021/05/29 03:38:13;;;;;;;21.27;16.60;;;;;;;14.56;62.33;101205.38;5080628;28;20463;-72
2021/05/29 03:40:39;;;;;;;22.90;16.23;;;;;;;14.58;61.90;101210.63;5080542;28;20517;-72
2021/05/29 03:43:05;;;;;;;27.53;16.97;;;;;;;14.73;61.67;101205.69;5080689;28;20957;-72
2021/05/29 03:45:32;;;;;;;25.83;16.20;;;;;;;14.65;61.87;101203.72;5081200;28;20463;-72
2021/05/29 03:47:58;;;;;;;29.47;17.90;;;;;;;14.49;62.12;101209.63;5081422;28;20476;-71
2021/05/29 03:50:26;;;;;;;27.97;18.83;;;;;;;14.55;62.10;101208.22;5081069;28;20483;-72
2021/05/29 03:52:53;;;;;;;25.67;18.60;;;;;;;14.41;61.59;101209.50;5080170;28;20795;-73
2021/05/29 03:55:21;;;;;;;26.73;18.30;;;;;;;14.47;62.02;101214.31;5080675;28;20429;-72
2021/05/29 03:57:48;;;;;;;27.47;18.80;;;;;;;14.43;62.02;101215.63;5081282;28;20459;-73
2021/05/29 04:00:16;;;;;;;35.60;18.87;;;;;;;14.59;61.66;101215.06;5080511;28;20460;-72
2021/05/29 04:02:43;;;;;;;28.07;18.50;;;;;;;14.66;61.59;101221.56;5080701;28;20531;-73
2021/05/29 04:05:10;;;;;;;24.73;17.70;;;;;;;14.78;61.47;101214.19;5080260;28;20958;-72
2021/05/29 04:07:38;;;;;;;26.60;18.70;;;;;;;14.85;61.57;101220.69;5080969;28;20491;-72
2021/05/29 04:10:06;;;;;;;25.80;18.07;;;;;;;14.80;61.51;101218.41;5080299;28;20511;-72
2021/05/29 04:12:33;;;;;;;26.40;17.63;;;;;;;14.91;61.31;101224.63;5080926;28;20476;-72
2021/05/29 04:14:59;;;;;;;27.30;17.87;;;;;;;15.03;60.90;101227.03;5080505;28;20456;-72
2021/05/29 04:17:25;;;;;;;28.20;17.50;;;;;;;15.13;60.66;101236.91;5080269;28;20490;-72
2021/05/29 04:19:51;;;;;;;28.33;18.00;;;;;;;14.59;61.46;101232.03;5080777;28;20460;-72
2021/05/29 04:22:18;;;;;;;25.03;15.87;;;;;;;14.67;61.93;101224.13;5080721;28;20554;-70
2021/05/29 04:24:44;;;;;;;24.67;17.90;;;;;;;14.87;61.02;101226.78;5081130;28;20487;-70
2021/05/29 04:27:11;;;;;;;23.60;16.90;;;;;;;14.98;61.02;101241.91;5077155;28;20479;-70
2021/05/29 04:29:38;;;;;;;24.70;17.23;;;;;;;15.09;60.43;101230.13;5081163;28;20468;-70
2021/05/29 04:32:05;;;;;;;25.57;17.50;;;;;;;15.02;60.52;101233.41;5080391;28;20483;-71
2021/05/29 04:34:31;;;;;;;24.13;16.80;;;;;;;15.00;60.46;101230.00;5081260;28;20459;-71
2021/05/29 04:36:57;;;;;;;28.80;19.47;;;;;;;15.11;59.99;101228.16;5079663;28;20476;-71
2021/05/29 04:39:23;;;;;;;26.37;16.70;;;;;;;15.27;59.53;101235.59;5068099;28;20506;-71
2021/05/29 04:41:49;;;;;;;24.30;16.03;;;;;;;15.32;59.51;101236.84;5080232;28;21058;-71
2021/05/29 04:44:15;;;;;;;26.23;18.13;;;;;;;15.49;58.99;101232.53;5080565;28;20493;-71
2021/05/29 04:46:50;;;;;;;22.93;17.57;;;;;;;15.82;58.23;101225.72;5079844;28;20546;-71
2021/05/29 04:49:17;;;;;;;25.90;15.70;;;;;;;15.92;58.16;101239.16;5080685;28;20781;-71
2021/05/29 04:51:44;;;;;;;25.00;17.30;;;;;;;15.80;57.55;101227.72;5080487;28;20883;-72
2021/05/29 04:54:10;;;;;;;20.13;13.87;;;;;;;15.79;57.00;101235.97;5080307;28;20478;-71
2021/05/29 04:56:36;;;;;;;27.80;14.97;;;;;;;15.90;56.96;101233.06;5083415;28;20487;-71
2021/05/29 04:59:02;;;;;;;22.03;14.93;;;;;;;16.05;57.09;101238.78;5084215;28;20448;-72
2021/05/29 05:01:30;;;;;;;22.00;15.80;;;;;;;16.24;56.86;101245.06;5083662;28;20479;-72
2021/05/29 05:03:58;;;;;;;21.70;14.73;;;;;;;16.49;55.67;101233.50;5084148;28;20447;-72
2021/05/29 05:06:24;;;;;;;23.13;14.90;;;;;;;16.42;55.88;101235.09;5084195;28;20502;-71
2021/05/29 05:08:50;;;;;;;19.20;14.13;;;;;;;16.59;56.06;101235.25;5083616;28;20472;-72
2021/05/29 05:11:16;;;;;;;20.50;14.67;;;;;;;16.83;55.50;101231.91;5084103;28;20471;-72
2021/05/29 05:13:42;;;;;;;25.33;15.53;;;;;;;16.77;54.95;101230.69;5083111;28;20451;-71
2021/05/29 05:16:09;;;;;;;18.63;14.33;;;;;;;16.98;54.04;101232.19;5083886;28;20503;-71
2021/05/29 05:18:35;;;;;;;20.93;14.83;;;;;;;17.43;52.84;101239.22;5084272;28;20464;-72
2021/05/29 05:21:02;;;;;;;19.87;14.17;;;;;;;17.23;52.78;101236.75;5083914;28;20471;-72
2021/05/29 05:23:28;;;;;;;18.87;12.40;;;;;;;16.87;53.55;101238.69;5082984;28;20483;-72
2021/05/29 05:25:54;;;;;;;19.20;13.77;;;;;;;17.01;54.25;101239.97;5084168;28;20525;-72
2021/05/29 05:28:21;;;;;;;18.30;14.80;;;;;;;16.48;55.52;101242.59;5084400;28;20455;-72
2021/05/29 05:30:47;;;;;;;22.90;14.97;;;;;;;16.45;55.79;101245.59;5083484;28;21063;-72
2021/05/29 05:33:14;;;;;;;17.97;14.03;;;;;;;16.54;55.90;101247.38;5084182;28;20481;-72
2021/05/29 05:35:41;;;;;;;22.60;14.97;;;;;;;16.69;55.74;101247.66;5083029;28;20542;-71
2021/05/29 05:38:08;;;;;;;18.33;13.40;;;;;;;16.87;54.40;101244.97;5083044;28;20464;-72
2021/05/29 05:40:34;;;;;;;21.53;14.57;;;;;;;17.34;53.29;101245.59;5081593;28;20460;-72
2021/05/29 05:43:00;;;;;;;17.17;12.90;;;;;;;17.26;53.43;101249.94;5083840;28;20484;-72
2021/05/29 05:45:27;;;;;;;19.60;13.23;;;;;;;16.89;54.03;101250.19;5083241;28;20541;-73
2021/05/29 05:47:53;;;;;;;16.60;13.60;;;;;;;16.63;55.39;101248.28;5083260;28;20973;-72
2021/05/29 05:50:19;;;;;;;20.40;14.10;;;;;;;17.06;54.51;101248.47;5083393;28;20472;-73
2021/05/29 05:52:45;;;;;;;19.43;13.87;;;;;;;17.35;53.84;101248.13;5083570;28;20424;-73
2021/05/29 05:55:13;;;;;;;20.63;13.33;;;;;;;17.62;52.61;101247.09;5083138;28;20478;-73
2021/05/29 05:57:39;;;;;;;20.53;14.63;;;;;;;17.38;52.84;101253.22;5083464;28;20515;-73
2021/05/29 06:00:07;;;;;;;19.23;12.70;;;;;;;17.38;53.13;101255.94;5082149;28;20953;-73
2021/05/29 06:02:33;;;;;;;19.63;14.10;;;;;;;16.69;55.54;101254.91;5083607;28;20512;-73
2021/05/29 06:05:00;;;;;;;19.43;14.50;;;;;;;15.93;57.54;101267.81;5083058;28;20448;-73
2021/05/29 06:07:26;;;;;;;18.27;14.07;;;;;;;16.45;56.44;101264.47;5081603;28;20487;-73
2021/05/29 06:09:52;;;;;;;17.10;12.07;;;;;;;16.57;55.94;101265.94;5081693;28;20506;-72
2021/05/29 06:12:19;;;;;;;15.20;12.60;;;;;;;16.02;56.91;101276.00;5082374;28;20870;-73
2021/05/29 06:20:14;;;;;;;16.07;11.67;;;;;;;15.56;57.09;101284.00;5082257;28;20458;-73
2021/05/29 06:22:41;;;;;;;15.07;10.93;;;;;;;15.62;56.22;101284.28;5082368;28;20491;-73
2021/05/29 06:25:08;;;;;;;15.50;12.10;;;;;;;15.11;57.55;101277.47;5082670;28;20535;-73
2021/05/29 06:27:35;;;;;;;17.10;12.00;;;;;;;15.09;57.72;101279.47;5082719;28;20523;-73
2021/05/29 06:30:02;;;;;;;21.00;13.17;;;;;;;15.33;57.89;101286.19;5082521;28;20478;-72
2021/05/29 06:32:28;;;;;;;18.27;13.10;;;;;;;14.90;57.45;101291.09;5082778;28;20471;-73
2021/05/29 06:34:54;;;;;;;17.97;13.63;;;;;;;14.93;58.01;101288.13;5083808;28;20455;-72
2021/05/29 06:37:20;;;;;;;23.00;14.00;;;;;;;14.79;58.71;101288.56;5083402;28;20483;-72
2021/05/29 06:39:46;;;;;;;18.40;14.10;;;;;;;14.75;59.50;101293.38;5082473;28;20460;-73
2021/05/29 06:42:13;;;;;;;18.53;12.70;;;;;;;14.45;59.83;101297.88;5081839;28;20484;-73
2021/05/29 06:44:40;;;;;;;18.27;13.93;;;;;;;14.44;60.56;101298.00;5081131;28;20508;-72
2021/05/29 06:47:06;;;;;;;20.97;14.63;;;;;;;14.86;59.00;101295.09;5079301;28;20507;-73
2021/05/29 06:49:35;;;;;;;24.93;15.20;;;;;;;14.94;58.91;101303.28;5082322;28;20508;-73
2021/05/29 06:52:03;;;;;;;19.63;15.30;;;;;;;15.06;58.22;101304.81;5071745;28;20552;-72
2021/05/29 06:54:46;;;;;;;20.67;13.80;;;;;;;15.14;57.92;101298.72;5082186;28;20455;-72
2021/05/29 06:59:57;;;;;;;19.43;14.80;;;;;;;15.14;58.06;101298.72;5076037;28;20948;-72
2021/05/29 07:02:24;;;;;;;27.93;13.73;;;;;;;15.01;58.43;101306.25;5079995;28;20476;-73
2021/05/29 07:04:51;;;;;;;18.20;14.20;;;;;;;15.27;57.50;101300.25;5080581;28;20463;-73
2021/05/29 07:07:17;;;;;;;21.60;14.30;;;;;;;15.25;57.73;101305.78;5079593;28;20620;-73
2021/05/29 07:09:43;;;;;;;22.10;14.97;;;;;;;14.91;58.78;101310.81;5081597;28;20417;-73
2021/05/29 07:12:10;;;;;;;19.90;14.73;;;;;;;15.04;57.55;101312.19;5080280;28;20472;-73
2021/05/29 07:14:36;;;;;;;19.20;13.70;;;;;;;15.20;56.89;101326.94;5081578;28;20448;-73
2021/05/29 07:17:05;;;;;;;22.33;15.00;;;;;;;15.28;57.68;101329.75;5078741;28;20507;-73
2021/05/29 07:19:31;;;;;;;21.13;15.10;;;;;;;14.89;58.13;101327.09;5080899;28;20455;-73
2021/05/29 07:21:57;;;;;;;18.60;14.00;;;;;;;14.79;58.90;101334.31;5079513;28;20506;-73
2021/05/29 07:24:27;;;;;;;20.10;13.23;;;;;;;14.94;57.98;101326.69;5081224;28;20459;-72
2021/05/29 07:26:53;;;;;;;24.80;15.47;;;;;;;15.23;56.80;101329.34;5080326;28;20478;-73
2021/05/29 07:29:20;;;;;;;19.17;14.73;;;;;;;15.32;57.51;101331.16;5079910;28;20452;-73
2021/05/29 07:31:47;;;;;;;21.80;14.90;;;;;;;15.02;58.27;101329.50;5078518;28;20464;-73
2021/05/29 07:34:14;;;;;;;23.33;16.03;;;;;;;15.06;57.89;101328.22;5079747;28;20452;-73
2021/05/29 07:36:41;;;;;;;22.43;15.57;;;;;;;15.23;57.45;101332.88;5079845;28;20468;-73
2021/05/29 07:39:07;;;;;;;20.93;14.70;;;;;;;15.28;57.59;101329.75;5079807;28;20539;-73
2021/05/29 07:41:35;;;;;;;23.93;16.33;;;;;;;14.84;57.81;101330.22;5079785;28;20533;-72
2021/05/29 07:44:01;;;;;;;21.63;16.30;;;;;;;15.23;57.40;101332.03;5079679;28;21115;-72
2021/05/29 07:46:29;;;;;;;23.13;15.43;;;;;;;15.13;57.46;101336.59;5079240;28;20506;-72
2021/05/29 07:48:57;;;;;;;22.77;16.47;;;;;;;15.10;57.48;101334.16;5079729;28;20421;-72
2021/05/29 07:51:24;;;;;;;23.03;15.30;;;;;;;14.97;57.58;101334.47;5079345;28;20479;-72
2021/05/29 07:53:50;;;;;;;23.17;16.80;;;;;;;15.21;57.63;101344.81;5080701;28;20471;-72
2021/05/29 07:56:22;;;;;;;21.27;15.30;;;;;;;15.40;57.34;101342.06;5080390;28;20709;-72
2021/05/29 07:58:49;;;;;;;24.13;16.20;;;;;;;15.21;57.87;101342.09;5078100;28;20486;-73
2021/05/29 08:01:16;;;;;;;26.87;16.40;;;;;;;15.42;57.03;101350.84;5079509;28;20476;-72
2021/05/29 08:03:43;;;;;;;23.60;15.87;;;;;;;15.22;57.57;101347.34;5080013;28;20496;-72
2021/05/29 08:06:10;;;;;;;20.87;15.70;;;;;;;15.32;56.41;101347.31;5079302;28;20499;-73
2021/05/29 08:08:37;;;;;;;22.97;17.33;;;;;;;15.53;56.56;101343.59;5079494;28;20478;-73
2021/05/29 08:11:04;;;;;;;21.03;15.40;;;;;;;15.67;56.10;101350.34;5080096;28;20484;-72
2021/05/29 08:13:30;;;;;;;21.53;15.53;;;;;;;15.45;55.94;101349.72;5078837;28;20448;-72
2021/05/29 08:15:56;;;;;;;18.97;15.47;;;;;;;15.32;56.58;101352.72;5078435;28;20476;-72
2021/05/29 08:18:23;;;;;;;21.00;16.37;;;;;;;15.66;55.64;101360.31;5079326;28;20541;-71
2021/05/29 08:20:50;;;;;;;21.80;15.80;;;;;;;16.00;55.04;101360.63;5078796;28;20480;-72
2021/05/29 08:23:17;;;;;;;21.40;15.50;;;;;;;15.65;56.17;101353.19;5079149;28;20464;-71
2021/05/29 08:25:44;;;;;;;21.70;14.37;;;;;;;15.23;55.58;101357.13;5079338;28;20821;-72
2021/05/29 08:28:10;;;;;;;20.67;15.70;;;;;;;14.90;55.92;101358.44;5077760;28;21030;-72
2021/05/29 08:30:37;;;;;;;18.87;14.33;;;;;;;14.82;57.01;101366.34;5077414;28;20463;-71
2021/05/29 08:33:03;;;;;;;18.83;13.30;;;;;;;14.98;56.72;101365.78;5084043;28;20444;-72
2021/05/29 08:35:30;;;;;;;20.73;16.10;;;;;;;15.02;56.27;101365.38;5082947;28;20471;-71
2021/05/29 08:37:56;;;;;;;19.80;14.30;;;;;;;14.80;57.17;101374.56;5081182;28;20444;-71
2021/05/29 08:40:22;;;;;;;18.37;14.67;;;;;;;15.28;55.87;101370.16;5083043;28;20468;-71
2021/05/29 08:42:49;;;;;;;19.50;14.17;;;;;;;15.17;56.29;101373.88;5084035;28;20613;-71
2021/05/29 08:45:18;;;;;;;22.80;14.70;;;;;;;14.77;56.72;101374.00;5083997;28;20447;-71
2021/05/29 08:47:46;;;;;;;21.63;13.87;;;;;;;15.68;54.97;101374.47;5083768;28;20443;-71
2021/05/29 08:50:14;;;;;;;17.80;13.90;;;;;;;15.72;54.59;101367.78;5082426;28;20448;-72
2021/05/29 08:52:40;;;;;;;19.77;13.63;;;;;;;16.25;53.37;101392.44;5085358;28;20960;-73
2021/05/29 08:55:09;;;;;;;18.00;14.30;;;;;;;15.82;53.45;101379.44;5081409;28;20456;-72
2021/05/29 08:57:35;;;;;;;19.43;14.57;;;;;;;16.35;52.17;101387.84;5081112;28;20451;-72
2021/05/29 09:00:04;;;;;;;18.90;13.63;;;;;;;16.19;52.73;101389.34;5082812;28;20498;-72
2021/05/29 09:02:31;;;;;;;17.30;12.83;;;;;;;16.06;52.61;101388.84;5081072;28;20512;-72
2021/05/29 09:05:05;;;;;;;17.37;13.40;;;;;;;15.69;53.59;101392.34;5083214;28;20825;-73
2021/05/29 09:07:31;;;;;;;21.77;13.13;;;;;;;16.12;52.49;101393.63;5081779;28;20803;-72
2021/05/29 09:10:17;;;;;;;16.93;12.60;;;;;;;16.36;51.37;101393.09;5084147;28;20443;-72
2021/05/29 09:12:58;;;;;;;17.73;13.13;;;;;;;15.92;53.28;101398.28;5083078;28;20443;-73
2021/05/29 09:15:39;;;;;;;18.13;13.53;;;;;;;16.37;51.83;101408.31;5080718;28;20471;-73
2021/05/29 09:18:05;;;;;;;18.80;13.77;;;;;;;16.75;50.25;101397.41;5083295;28;20465;-73
2021/05/29 09:20:32;;;;;;;21.20;12.70;;;;;;;16.73;51.12;101397.56;5089964;28;20490;-73
2021/05/29 09:22:59;;;;;;;18.50;13.40;;;;;;;16.63;51.04;101406.72;5081420;28;20978;-73
2021/05/29 09:25:26;;;;;;;16.47;12.67;;;;;;;17.20;49.73;101399.19;5078466;28;20463;-67
2021/05/29 09:27:55;;;;;;;15.47;11.73;;;;;;;17.41;48.94;101401.59;5081373;28;20458;-72
2021/05/29 09:30:46;;;;;;;16.70;11.07;;;;;;;16.80;49.96;101399.66;5092762;28;20691;-68
2021/05/29 09:33:15;;;;;;;16.07;12.07;;;;;;;17.16;47.91;101402.41;5081490;28;20523;-68
2021/05/29 09:35:42;;;;;;;16.90;11.43;;;;;;;17.69;47.27;101401.47;5080126;28;20539;-69
2021/05/29 09:38:09;;;;;;;15.40;12.33;;;;;;;17.80;46.71;101394.94;5080975;28;20803;-69
2021/05/29 09:40:35;;;;;;;17.50;13.20;;;;;;;17.68;47.52;101400.59;5080975;28;20460;-69
2021/05/29 09:43:05;;;;;;;19.83;13.00;;;;;;;18.24;47.01;101403.81;5097320;28;20498;-70
2021/05/29 09:45:32;;;;;;;19.03;12.77;;;;;;;18.27;46.91;101409.91;5104841;28;20439;-72
2021/05/29 09:48:13;;;;;;;17.87;13.17;;;;;;;16.98;48.57;101405.94;5096726;28;20435;-70
2021/05/29 09:50:57;;;;;;;16.07;12.60;;;;;;;17.34;49.19;101405.06;5073891;28;20480;-70
2021/05/29 09:53:27;;;;;;;17.50;13.40;;;;;;;17.18;49.62;101405.78;5071944;28;20444;-71
2021/05/29 09:55:53;;;;;;;17.67;13.63;;;;;;;17.02;48.89;101418.13;5060861;28;20779;-71
2021/05/29 09:58:19;;;;;;;16.43;12.97;;;;;;;16.69;48.75;101408.81;5076779;28;20479;-72
2021/05/29 10:00:47;;;;;;;20.53;13.50;;;;;;;16.33;49.29;101416.84;5080433;28;20487;-69
2021/05/29 10:03:14;;;;;;;16.97;12.60;;;;;;;17.04;47.85;101410.72;5080940;28;20484;-70
2021/05/29 10:05:42;;;;;;;16.10;12.97;;;;;;;17.49;47.07;101409.75;5080333;28;20923;-69
2021/05/29 10:08:13;;;;;;;15.77;12.70;;;;;;;17.29;46.52;101413.63;5081925;28;20464;-69
2021/05/29 10:10:40;;;;;;;16.03;11.67;;;;;;;17.90;46.05;101411.94;5081186;28;20513;-74
2021/05/29 10:13:06;;;;;;;14.37;12.63;;;;;;;18.31;45.31;101412.09;5080527;28;20458;-77
2021/05/29 10:15:32;;;;;;;17.60;12.80;;;;;;;17.38;47.35;101411.88;5080848;28;20464;-79
2021/05/29 10:18:00;;;;;;;16.80;13.00;;;;;;;17.31;47.71;101422.47;5082887;28;21209;-74
2021/05/29 10:20:27;;;;;;;19.00;13.53;;;;;;;17.36;47.53;101420.13;5079927;28;20478;-75
2021/05/29 10:22:54;;;;;;;16.37;13.20;;;;;;;17.08;49.16;101427.47;5076655;28;20989;-74
2021/05/29 10:25:21;;;;;;;17.00;13.50;;;;;;;17.40;48.28;101424.22;5079028;28;20452;-75
2021/05/29 10:27:51;;;;;;;18.10;14.53;;;;;;;16.64;49.06;101420.06;5079593;28;20466;-74
2021/05/29 10:30:19;;;;;;;15.87;12.83;;;;;;;17.22;48.31;101439.59;5079008;28;20452;-74
2021/05/29 10:33:09;;;;;;;19.40;14.10;;;;;;;16.95;47.99;101425.16;5076031;28;20451;-68
2021/05/29 10:35:38;;;;;;;16.43;12.30;;;;;;;17.23;47.54;101430.50;5079339;28;20859;-71
2021/05/29 10:38:04;;;;;;;16.60;13.20;;;;;;;17.61;46.50;101431.97;5078351;28;20815;-72
2021/05/29 10:40:34;;;;;;;15.77;13.17;;;;;;;17.81;47.11;101440.75;5079865;28;20514;-72
2021/05/29 10:43:09;;;;;;;14.03;11.77;;;;;;;17.83;45.75;101427.91;5079380;28;20494;-72
2021/05/29 10:45:37;;;;;;;18.10;12.67;;;;;;;17.91;46.28;101432.53;5079967;28;20904;-72
2021/05/29 10:48:06;;;;;;;14.63;12.30;;;;;;;18.12;46.11;101425.91;5079660;28;20467;-72
2021/05/29 10:51:04;;;;;;;17.70;13.13;;;;;;;18.35;46.49;101423.47;5079543;28;20474;-72
2021/05/29 10:53:42;;;;;;;15.67;12.83;;;;;;;18.24;46.61;101432.72;5043784;28;20457;-72
2021/05/29 10:56:35;;;;;;;17.47;12.43;;;;;;;17.59;47.77;101420.47;5062216;28;20468;-72
2021/05/29 10:59:10;;;;;;;15.20;11.27;;;;;;;18.04;46.64;101429.41;5017416;28;20527;-72
2021/05/29 11:02:08;;;;;;;15.43;11.70;;;;;;;17.59;47.44;101422.34;5016608;28;20502;-72
2021/05/29 11:04:35;;;;;;;13.80;10.40;;;;;;;18.01;47.02;101433.28;4977328;28;20706;-72
2021/05/29 11:07:23;;;;;;;13.80;11.27;;;;;;;17.90;45.56;101428.16;4977681;28;20484;-72
2021/05/29 11:09:57;;;;;;;14.70;11.20;;;;;;;18.27;46.06;101426.16;4973908;28;20457;-72
2021/05/29 11:12:51;;;;;;;13.33;10.90;;;;;;;18.06;47.28;101419.28;4976973;28;20483;-72
2021/05/29 11:15:17;;;;;;;12.87;11.03;;;;;;;18.66;44.99;101431.84;4965038;28;20453;-72
2021/05/29 11:18:09;;;;;;;13.20;10.37;;;;;;;18.35;45.36;101427.03;4982433;28;20466;-72
2021/05/29 11:21:06;;;;;;;15.63;11.57;;;;;;;18.80;45.51;101428.53;4976804;28;20470;-72
2021/05/29 11:23:33;;;;;;;12.87;10.57;;;;;;;19.27;45.54;101428.94;4977254;28;20492;-72